Terminal Aerodrome Forecast
Issued by NWS Atlanta, GA

Home | Current Version | Previous Version | Text Only | Print | Product List | Glossary On
Versions: 1 2 3 4 5 6 7 8 9 10 11 12 13 14 15 16 17 18 19 20 21 22 23 24 25
000
FTUS42 KFFC 241728
TAFCSG
TAF
KCSG 241728Z 2418/2518 20008KT P6SM SCT045
     FM250000 22004KT P6SM SCT060
     FM251000 26007KT P6SM BKN021 PROB30 2510/2513 5SM -SHRA BR
      BKN012
     FM251400 29010G20KT P6SM SCT030=

USA.gov is the U.S. government's official web portal to all federal, state and local government web resources and services.